createdAt,value
2022-08-26T00:01:29.177Z,7.50
2022-08-26T00:03:33.181Z,7.40
2022-08-26T00:05:36.777Z,7.33
2022-08-26T00:07:40.791Z,6.80
2022-08-26T00:09:47.333Z,6.40
2022-08-26T00:11:51.054Z,6.67
2022-08-26T00:13:54.456Z,7.87
2022-08-26T00:15:57.939Z,7.70
2022-08-26T00:18:02.556Z,7.20
2022-08-26T00:20:06.670Z,7.50
2022-08-26T00:22:11.038Z,7.10
2022-08-26T00:24:14.926Z,7.53
2022-08-26T00:26:18.224Z,6.90
2022-08-26T00:28:21.484Z,6.40
2022-08-26T00:30:29.226Z,7.43
2022-08-26T00:32:34.394Z,7.00
2022-08-26T00:34:39.367Z,6.37
2022-08-26T00:36:42.208Z,6.83
2022-08-26T00:38:46.713Z,7.30
2022-08-26T00:40:50.709Z,7.27
2022-08-26T00:42:53.406Z,7.37
2022-08-26T00:44:56.482Z,7.23
2022-08-26T00:47:02.254Z,6.73
2022-08-26T00:49:11.718Z,6.97
2022-08-26T00:51:18.012Z,6.77
2022-08-26T00:53:26.057Z,6.60
2022-08-26T00:55:37.953Z,6.50
2022-08-26T00:57:41.217Z,6.90
2022-08-26T00:59:44.637Z,7.20
2022-08-26T01:01:49.931Z,6.67
2022-08-26T01:03:52.646Z,6.57
2022-08-26T01:05:57.245Z,7.97
2022-08-26T01:08:01.538Z,6.43
2022-08-26T01:10:08.622Z,6.50
2022-08-26T01:12:11.532Z,7.50
2022-08-26T01:14:14.191Z,9.60
2022-08-26T01:16:17.004Z,6.43
2022-08-26T01:18:20.406Z,6.83
2022-08-26T01:20:28.442Z,7.00
2022-08-26T01:22:32.262Z,6.47
2022-08-26T01:24:36.233Z,6.83
2022-08-26T01:26:41.937Z,6.63
2022-08-26T01:28:44.589Z,6.33
2022-08-26T01:30:54.078Z,7.30
2022-08-26T01:32:57.300Z,6.60
2022-08-26T01:35:00.295Z,6.00
2022-08-26T01:37:05.309Z,6.80
2022-08-26T01:39:08.196Z,6.60
2022-08-26T01:41:19.817Z,6.63
2022-08-26T01:43:30.476Z,6.83
2022-08-26T01:45:33.964Z,6.10
2022-08-26T01:47:36.728Z,6.73
2022-08-26T01:49:40.150Z,6.67
2022-08-26T01:51:44.461Z,5.93
2022-08-26T01:53:47.405Z,7.37
2022-08-26T01:55:52.862Z,6.50
2022-08-26T01:57:57.433Z,6.70
2022-08-26T02:00:01.196Z,5.50
2022-08-26T02:02:03.986Z,7.50
2022-08-26T02:04:11.371Z,6.23
2022-08-26T02:06:21.455Z,6.20
2022-08-26T02:08:27.503Z,5.83
2022-08-26T02:10:30.151Z,6.40
2022-08-26T02:12:32.826Z,6.63
2022-08-26T02:14:43.781Z,6.00
2022-08-26T02:16:47.983Z,6.23
2022-08-26T02:18:50.714Z,5.83
2022-08-26T02:20:56.183Z,8.37
2022-08-26T02:22:59.210Z,6.50
2022-08-26T02:25:14.714Z,6.20
2022-08-26T02:27:19.284Z,5.70
2022-08-26T02:29:24.877Z,5.67
2022-08-26T02:31:28.968Z,5.97
2022-08-26T02:33:31.670Z,6.13
2022-08-26T02:35:34.801Z,5.87
2022-08-26T02:37:37.429Z,6.73
2022-08-26T02:39:41.583Z,6.77
2022-08-26T02:41:45.286Z,6.73
2022-08-26T02:43:49.036Z,8.13
2022-08-26T02:45:51.734Z,6.40
2022-08-26T02:47:56.333Z,6.80
2022-08-26T02:49:59.459Z,6.07
2022-08-26T02:52:02.486Z,6.30
2022-08-26T02:54:06.000Z,6.20
2022-08-26T02:56:08.675Z,6.00
2022-08-26T02:58:11.558Z,6.57
2022-08-26T03:00:15.676Z,6.00
2022-08-26T03:02:18.705Z,6.60
2022-08-26T03:04:22.715Z,5.57
2022-08-26T03:06:29.446Z,6.33
2022-08-26T03:08:33.799Z,6.10
2022-08-26T03:10:37.232Z,5.37
2022-08-26T03:12:41.112Z,5.90
2022-08-26T03:14:45.264Z,5.77
2022-08-26T03:16:50.766Z,6.17
2022-08-26T03:18:53.643Z,7.40
2022-08-26T03:20:58.296Z,6.10
2022-08-26T03:23:01.348Z,4.97
2022-08-26T03:25:04.743Z,6.33
2022-08-26T03:27:07.756Z,5.83
2022-08-26T03:29:21.753Z,5.70
2022-08-26T03:31:24.762Z,6.20
2022-08-26T03:33:27.677Z,5.97
2022-08-26T03:35:30.544Z,6.10
2022-08-26T03:37:34.805Z,5.20
2022-08-26T03:39:37.816Z,6.87
2022-08-26T03:41:40.569Z,6.07
2022-08-26T03:43:43.729Z,6.57
2022-08-26T03:45:47.886Z,6.40
2022-08-26T03:47:50.566Z,6.37
2022-08-26T03:49:55.695Z,5.13
2022-08-26T03:51:58.340Z,6.40
2022-08-26T03:54:02.953Z,5.53
2022-08-26T03:56:06.018Z,5.80
2022-08-26T03:58:08.682Z,6.70
2022-08-26T04:00:14.594Z,6.23
2022-08-26T04:02:21.674Z,5.50
2022-08-26T04:04:24.644Z,6.80
2022-08-26T04:06:27.786Z,5.80
2022-08-26T04:08:30.913Z,6.80
2022-08-26T04:10:34.853Z,6.10
2022-08-26T04:12:37.815Z,5.80
2022-08-26T04:14:40.968Z,6.53
2022-08-26T04:16:44.515Z,6.23
2022-08-26T04:18:47.304Z,7.63
2022-08-26T04:20:50.592Z,5.50
2022-08-26T04:22:53.331Z,5.93
2022-08-26T04:24:56.199Z,6.13
2022-08-26T04:27:02.428Z,6.17
2022-08-26T04:29:05.848Z,8.03
2022-08-26T04:31:12.201Z,6.13
2022-08-26T04:33:15.055Z,6.17
2022-08-26T04:35:18.024Z,7.33
2022-08-26T04:37:22.152Z,6.57
2022-08-26T04:39:25.686Z,5.80
2022-08-26T04:41:31.705Z,7.83
2022-08-26T04:43:37.646Z,6.47
2022-08-26T04:45:43.715Z,6.73
2022-08-26T04:47:46.743Z,5.73
2022-08-26T04:49:49.929Z,7.10
2022-08-26T04:51:53.446Z,8.10
2022-08-26T04:53:57.326Z,6.40
2022-08-26T04:56:00.426Z,5.90
2022-08-26T04:58:03.710Z,6.13
2022-08-26T05:00:10.177Z,7.13
2022-08-26T05:02:14.136Z,6.37
2022-08-26T05:04:19.018Z,7.53
2022-08-26T05:06:22.018Z,6.93
2022-08-26T05:08:25.195Z,6.50
2022-08-26T05:10:28.958Z,7.23
2022-08-26T05:12:31.759Z,9.03
2022-08-26T05:14:34.474Z,6.70
2022-08-26T05:16:40.430Z,7.03
2022-08-26T05:18:44.259Z,6.23
2022-08-26T05:20:49.829Z,7.97
2022-08-26T05:22:52.913Z,7.00
2022-08-26T05:24:56.152Z,7.17
2022-08-26T05:26:58.928Z,7.07
2022-08-26T05:29:02.570Z,6.80
2022-08-26T05:31:13.309Z,7.00
2022-08-26T05:33:19.446Z,6.67
2022-08-26T05:35:22.844Z,10.43
2022-08-26T05:37:25.976Z,6.73
2022-08-26T05:39:28.579Z,6.27
2022-08-26T05:41:34.564Z,6.77
2022-08-26T05:43:39.316Z,7.93
2022-08-26T05:45:46.292Z,7.20
2022-08-26T05:47:49.085Z,8.20
2022-08-26T05:49:56.013Z,7.73
2022-08-26T05:51:58.655Z,6.30
2022-08-26T05:54:02.394Z,7.07
2022-08-26T05:56:06.707Z,9.20
2022-08-26T05:58:09.328Z,6.80
2022-08-26T06:00:12.799Z,10.80
2022-08-26T06:02:15.924Z,6.80
2022-08-26T06:04:20.035Z,9.13
2022-08-26T06:06:27.300Z,8.93
2022-08-26T06:08:31.251Z,8.97
2022-08-26T06:10:34.429Z,11.20
2022-08-26T06:12:37.381Z,9.30
2022-08-26T06:14:40.415Z,10.40
2022-08-26T06:16:44.965Z,14.17
2022-08-26T06:18:48.395Z,10.00
2022-08-26T06:20:57.927Z,14.50
2022-08-26T06:23:13.124Z,11.03
2022-08-26T06:25:30.013Z,9.40
2022-08-26T06:27:32.983Z,11.50
2022-08-26T06:29:36.081Z,12.90
2022-08-26T06:31:39.097Z,13.77
2022-08-26T06:33:43.437Z,12.50
2022-08-26T06:35:46.838Z,12.47
2022-08-26T06:37:50.907Z,14.37
2022-08-26T06:39:54.862Z,13.33
2022-08-26T06:41:58.773Z,14.30
2022-08-26T06:44:01.602Z,17.67
2022-08-26T06:46:08.499Z,17.50
2022-08-26T06:48:11.810Z,15.57
2022-08-26T06:50:14.831Z,12.37
2022-08-26T06:52:22.506Z,19.70
2022-08-26T06:54:27.174Z,11.10
2022-08-26T06:56:34.243Z,13.93
2022-08-26T06:58:37.769Z,14.07
2022-08-26T07:00:40.545Z,13.77
2022-08-26T07:02:49.912Z,14.80
2022-08-26T07:04:52.658Z,15.27
2022-08-26T07:07:00.120Z,15.27
2022-08-26T07:09:04.892Z,18.83
2022-08-26T07:11:07.820Z,18.03
2022-08-26T07:13:12.321Z,16.80
2022-08-26T07:15:15.047Z,18.80
2022-08-26T07:17:17.691Z,15.20
2022-08-26T07:19:30.867Z,13.90
2022-08-26T07:21:34.697Z,15.33
2022-08-26T07:23:37.361Z,16.27
2022-08-26T07:25:43.396Z,20.00
2022-08-26T07:27:46.575Z,19.60
2022-08-26T07:29:59.289Z,20.50
2022-08-26T07:32:02.232Z,16.90
2022-08-26T07:34:06.236Z,19.27
2022-08-26T07:36:10.248Z,19.90
2022-08-26T07:38:13.265Z,16.47
2022-08-26T07:40:15.917Z,21.40
2022-08-26T07:42:19.603Z,17.13
2022-08-26T07:44:22.526Z,20.40
2022-08-26T07:46:27.033Z,23.23
2022-08-26T07:48:32.793Z,14.03
2022-08-26T07:50:49.497Z,21.13
2022-08-26T07:52:53.764Z,18.37
2022-08-26T07:54:56.884Z,14.73
2022-08-26T07:56:59.492Z,16.03
2022-08-26T07:59:02.155Z,17.00
2022-08-26T08:01:05.447Z,18.70
2022-08-26T08:03:11.284Z,17.13
2022-08-26T08:05:15.483Z,16.37
2022-08-26T08:07:20.062Z,16.87
2022-08-26T08:09:23.164Z,17.90
2022-08-26T08:11:28.669Z,16.20
2022-08-26T08:13:31.286Z,18.50
2022-08-26T08:15:35.500Z,17.93
2022-08-26T08:17:38.244Z,18.47
2022-08-26T08:19:42.885Z,16.60
2022-08-26T08:21:46.814Z,13.20
2022-08-26T08:23:49.667Z,18.87
2022-08-26T08:25:52.279Z,15.50
2022-08-26T08:27:55.200Z,16.63
2022-08-26T08:30:00.334Z,17.80
2022-08-26T08:32:03.547Z,19.57
2022-08-26T08:34:06.806Z,21.13
2022-08-26T08:36:11.128Z,18.40
2022-08-26T08:38:21.338Z,15.93
2022-08-26T08:40:25.014Z,19.30
2022-08-26T08:42:36.410Z,19.07
2022-08-26T08:44:40.754Z,15.83
2022-08-26T08:46:43.369Z,16.70
2022-08-26T08:48:47.666Z,17.37
2022-08-26T08:50:52.053Z,26.93
2022-08-26T08:53:09.031Z,15.93
2022-08-26T08:55:14.786Z,20.40
2022-08-26T08:57:24.396Z,24.60
2022-08-26T08:59:28.442Z,23.13
2022-08-26T09:01:39.430Z,23.80
2022-08-26T09:03:54.582Z,17.37
2022-08-26T09:05:58.715Z,20.83
2022-08-26T09:08:04.720Z,22.60
2022-08-26T09:10:23.839Z,22.97
2022-08-26T09:12:29.901Z,17.43
2022-08-26T09:14:32.702Z,18.70
2022-08-26T09:16:38.389Z,18.03
2022-08-26T09:18:50.965Z,15.27
2022-08-26T09:20:56.308Z,21.00
2022-08-26T09:22:58.944Z,18.50
2022-08-26T09:25:05.271Z,18.67
2022-08-26T09:27:08.648Z,16.70
2022-08-26T09:31:25.042Z,21.70
2022-08-26T09:33:31.490Z,28.23
2022-08-26T09:35:35.685Z,21.83
2022-08-26T09:37:41.079Z,17.20
2022-08-26T09:39:44.290Z,24.67
2022-08-26T09:41:48.739Z,17.73
2022-08-26T09:44:09.839Z,28.00
2022-08-26T09:46:19.466Z,21.40
2022-08-26T09:48:27.781Z,25.63
2022-08-26T09:50:32.039Z,22.80
2022-08-26T09:52:34.657Z,20.53
2022-08-26T09:54:37.663Z,24.53
2022-08-26T09:56:41.118Z,20.30
2022-08-26T09:58:47.045Z,20.03
2022-08-26T10:00:55.316Z,22.87
2022-08-26T10:02:58.603Z,22.83
2022-08-26T10:05:04.515Z,21.00
2022-08-26T10:07:13.153Z,25.60
2022-08-26T10:09:18.728Z,21.80
2022-08-26T10:11:25.627Z,21.27
2022-08-26T10:13:33.256Z,22.47
2022-08-26T10:15:48.638Z,21.03
2022-08-26T10:17:56.934Z,16.70
2022-08-26T10:20:00.600Z,18.33
2022-08-26T10:22:05.136Z,18.57
2022-08-26T10:24:08.126Z,23.63
2022-08-26T10:26:15.605Z,19.47
2022-08-26T10:28:20.649Z,19.00
2022-08-26T10:30:24.746Z,17.53
2022-08-26T10:32:35.020Z,19.97
2022-08-26T10:34:40.242Z,20.73
2022-08-26T10:37:14.866Z,20.23
2022-08-26T10:39:22.257Z,18.70
2022-08-26T10:41:26.434Z,19.33
2022-08-26T10:43:30.778Z,21.47
2022-08-26T10:45:40.093Z,22.20
2022-08-26T10:47:49.711Z,17.87
2022-08-26T10:49:52.593Z,21.33
2022-08-26T10:51:58.754Z,21.57
2022-08-26T10:54:04.571Z,20.30
2022-08-26T10:56:15.830Z,19.87
2022-08-26T10:58:29.034Z,22.40
2022-08-26T11:00:45.142Z,22.10
2022-08-26T11:02:50.299Z,17.87
2022-08-26T11:04:57.927Z,16.80
2022-08-26T11:07:25.321Z,20.37
2022-08-26T11:09:43.313Z,17.90
2022-08-26T11:11:48.377Z,15.23
2022-08-26T11:14:02.081Z,18.83
2022-08-26T11:16:05.402Z,16.37
2022-08-26T11:18:37.331Z,18.87
2022-08-26T11:20:41.785Z,18.40
2022-08-26T11:22:47.366Z,19.50
2022-08-26T11:25:05.722Z,18.57
2022-08-26T11:27:10.214Z,16.47
2022-08-26T11:29:14.568Z,16.33
2022-08-26T11:31:47.024Z,19.73
2022-08-26T11:33:52.900Z,20.63
2022-08-26T11:35:56.951Z,21.00
2022-08-26T11:38:00.428Z,21.40
2022-08-26T11:40:09.365Z,18.83
2022-08-26T11:42:24.793Z,16.37
2022-08-26T11:44:38.640Z,19.83
2022-08-26T11:46:41.251Z,15.50
2022-08-26T11:48:44.336Z,16.90
2022-08-26T11:50:55.070Z,18.90
2022-08-26T11:53:01.958Z,16.90
2022-08-26T11:55:07.218Z,16.13
2022-08-26T11:57:11.899Z,21.90
2022-08-26T11:59:24.037Z,16.47
2022-08-26T12:01:28.026Z,19.23
2022-08-26T12:03:38.704Z,16.90
2022-08-26T12:05:44.339Z,17.10
2022-08-26T12:07:50.713Z,20.57
2022-08-26T12:09:57.625Z,16.90
2022-08-26T12:12:18.195Z,17.30
2022-08-26T12:14:24.501Z,15.37
2022-08-26T12:16:27.914Z,17.37
2022-08-26T12:18:31.693Z,18.00
2022-08-26T12:20:47.927Z,15.10
2022-08-26T12:22:52.280Z,17.90
2022-08-26T12:24:56.611Z,13.63
2022-08-26T12:27:11.786Z,16.17
2022-08-26T12:29:27.038Z,16.07
2022-08-26T12:31:32.186Z,17.30
2022-08-26T12:33:35.890Z,18.07
2022-08-26T12:35:39.488Z,14.47
2022-08-26T12:37:46.124Z,16.40
2022-08-26T12:39:50.085Z,14.50
2022-08-26T12:41:57.583Z,14.13
2022-08-26T12:44:04.701Z,14.40
2022-08-26T12:46:10.796Z,13.87
2022-08-26T12:48:19.458Z,20.47
2022-08-26T12:50:30.795Z,16.00
2022-08-26T12:52:36.333Z,14.37
2022-08-26T12:54:56.672Z,14.97
2022-08-26T12:57:10.740Z,13.27
2022-08-26T12:59:22.778Z,17.33
2022-08-26T13:01:27.192Z,13.90
2022-08-26T13:03:44.451Z,13.63
2022-08-26T13:05:50.553Z,14.93
2022-08-26T13:08:13.561Z,13.97
2022-08-26T13:10:43.551Z,15.23
2022-08-26T13:12:50.678Z,14.50
2022-08-26T13:14:55.226Z,14.77
2022-08-26T13:17:00.301Z,15.17
2022-08-26T13:19:05.115Z,14.17
2022-08-26T13:21:14.719Z,14.50
2022-08-26T13:23:19.080Z,14.83
2022-08-26T13:25:23.780Z,17.03
2022-08-26T13:27:28.388Z,12.97
2022-08-26T13:29:33.728Z,15.80
2022-08-26T13:31:41.843Z,13.27
2022-08-26T13:33:45.776Z,14.13
2022-08-26T13:35:53.137Z,14.20
2022-08-26T13:37:55.897Z,13.90
2022-08-26T13:40:00.024Z,13.00
2022-08-26T13:42:07.676Z,16.10
2022-08-26T13:44:13.795Z,15.57
2022-08-26T13:46:22.861Z,13.17
2022-08-26T13:48:27.703Z,16.30
2022-08-26T13:50:34.402Z,13.40
2022-08-26T13:52:39.458Z,11.20
2022-08-26T13:54:43.808Z,15.70
2022-08-26T13:56:47.953Z,15.73
2022-08-26T13:58:53.322Z,14.00
2022-08-26T14:00:59.512Z,12.03
2022-08-26T14:03:10.179Z,13.90
2022-08-26T14:05:15.949Z,12.77
2022-08-26T14:07:18.577Z,14.07
2022-08-26T14:09:33.460Z,12.30
2022-08-26T14:11:54.131Z,14.93
2022-08-26T14:14:01.216Z,12.90
2022-08-26T14:16:07.810Z,11.60
2022-08-26T14:18:13.427Z,12.90
2022-08-26T14:20:24.048Z,12.03
2022-08-26T14:22:29.946Z,13.20
2022-08-26T14:24:59.631Z,12.47
2022-08-26T14:27:15.140Z,12.57
2022-08-26T14:29:39.385Z,13.03
2022-08-26T14:31:46.428Z,11.40
2022-08-26T14:34:05.418Z,11.63
2022-08-26T14:36:21.674Z,12.60
2022-08-26T14:38:26.711Z,12.30
2022-08-26T14:40:31.554Z,12.53
2022-08-26T14:42:37.649Z,12.20
2022-08-26T14:44:43.007Z,12.27
2022-08-26T14:46:49.143Z,12.13
2022-08-26T14:48:57.208Z,14.63
2022-08-26T14:51:08.555Z,12.73
2022-08-26T14:53:24.594Z,12.87
2022-08-26T14:55:35.994Z,12.80
2022-08-26T14:57:40.437Z,12.27
2022-08-26T14:59:49.870Z,14.00
2022-08-26T15:02:00.411Z,13.47
2022-08-26T15:04:23.665Z,13.60
2022-08-26T15:06:27.620Z,14.40
2022-08-26T15:08:42.548Z,13.00
2022-08-26T15:10:45.753Z,15.67
2022-08-26T15:12:50.902Z,15.00
2022-08-26T15:14:55.391Z,13.17
2022-08-26T15:17:00.205Z,12.73
2022-08-26T15:19:06.122Z,13.80
2022-08-26T15:21:11.321Z,12.90
2022-08-26T15:23:15.572Z,12.77
2022-08-26T15:25:18.948Z,14.50
2022-08-26T15:27:21.602Z,12.60
2022-08-26T15:29:27.155Z,12.50
2022-08-26T15:31:31.859Z,14.47
2022-08-26T15:33:35.614Z,14.40
2022-08-26T15:35:38.462Z,12.13
2022-08-26T15:37:46.220Z,17.20
2022-08-26T15:39:49.449Z,48.03
2022-08-26T15:41:57.836Z,28.50
2022-08-26T15:44:05.180Z,23.17
2022-08-26T15:46:16.472Z,36.77
2022-08-26T15:48:19.805Z,34.73
2022-08-26T15:50:22.427Z,48.03
2022-08-26T15:52:25.917Z,68.83
2022-08-26T15:54:31.691Z,70.77
2022-08-26T15:56:40.150Z,56.70
2022-08-26T15:58:50.978Z,98.43
2022-08-26T16:00:55.698Z,65.20
2022-08-26T16:03:00.070Z,67.40
2022-08-26T16:05:03.399Z,51.53
2022-08-26T16:07:12.783Z,57.77
2022-08-26T16:09:16.711Z,51.30
2022-08-26T16:11:22.332Z,49.63
2022-08-26T16:13:25.010Z,57.10
2022-08-26T16:15:33.057Z,48.60
2022-08-26T16:17:37.625Z,52.30
2022-08-26T16:19:40.777Z,51.80
2022-08-26T16:21:47.686Z,55.77
2022-08-26T16:23:56.123Z,59.77
2022-08-26T16:26:01.028Z,64.33
2022-08-26T16:28:11.428Z,65.17
2022-08-26T16:30:21.315Z,63.67
2022-08-26T16:32:36.019Z,60.20
2022-08-26T16:34:47.082Z,67.90
2022-08-26T16:37:02.372Z,76.40
2022-08-26T16:39:06.613Z,69.47
2022-08-26T16:41:10.559Z,71.03
2022-08-26T16:43:17.163Z,81.53
2022-08-26T16:45:20.417Z,142.63
2022-08-26T16:47:25.826Z,92.20
2022-08-26T16:49:31.211Z,78.87
2022-08-26T16:51:38.100Z,95.57
2022-08-26T16:53:41.048Z,88.13
2022-08-26T16:55:47.034Z,92.90
2022-08-26T16:57:50.188Z,89.87
2022-08-26T17:00:00.218Z,77.40
2022-08-26T17:02:11.579Z,70.83
2022-08-26T17:04:19.034Z,70.90
2022-08-26T17:06:23.589Z,71.20
2022-08-26T17:08:29.087Z,76.80
2022-08-26T17:10:35.709Z,76.33
2022-08-26T17:12:40.120Z,69.87
2022-08-26T17:14:42.993Z,73.27
2022-08-26T17:16:53.951Z,71.23
2022-08-26T17:19:00.230Z,65.70
2022-08-26T17:21:03.453Z,66.30
2022-08-26T17:23:07.349Z,64.40
2022-08-26T17:25:13.872Z,61.40
2022-08-26T17:27:16.727Z,59.00
2022-08-26T17:29:19.654Z,54.47
2022-08-26T17:31:22.585Z,54.20
2022-08-26T17:33:27.251Z,53.20
2022-08-26T17:35:30.753Z,60.13
2022-08-26T17:37:34.611Z,49.00
2022-08-26T17:39:47.926Z,57.50
2022-08-26T17:41:52.006Z,50.10
2022-08-26T17:43:54.697Z,57.30
2022-08-26T17:46:04.528Z,56.17
2022-08-26T17:48:10.594Z,50.60
2022-08-26T17:50:17.120Z,55.10
2022-08-26T17:52:19.764Z,46.80
2022-08-26T17:54:22.705Z,46.50
2022-08-26T17:56:26.344Z,52.00
2022-08-26T17:58:31.781Z,44.33
2022-08-26T18:00:37.191Z,46.17
2022-08-26T18:02:40.072Z,40.70
2022-08-26T18:04:42.690Z,42.93
2022-08-26T18:06:46.645Z,43.93
2022-08-26T18:08:49.636Z,39.80
2022-08-26T18:10:52.318Z,37.57
2022-08-26T18:12:54.968Z,43.83
2022-08-26T18:14:57.613Z,41.83
2022-08-26T18:17:01.789Z,45.50
2022-08-26T18:19:09.749Z,46.50
2022-08-26T18:21:16.252Z,39.10
2022-08-26T18:23:22.952Z,44.90
2022-08-26T18:25:28.931Z,40.50
2022-08-26T18:27:31.561Z,37.03
2022-08-26T18:29:45.415Z,35.97
2022-08-26T18:31:49.562Z,38.80
2022-08-26T18:33:52.204Z,37.77
2022-08-26T18:35:55.860Z,31.77
2022-08-26T18:38:11.430Z,35.70
2022-08-26T18:40:16.076Z,36.60
2022-08-26T18:42:18.788Z,35.40
2022-08-26T18:44:23.193Z,35.10
2022-08-26T18:46:26.892Z,31.60
2022-08-26T18:48:29.541Z,34.80
2022-08-26T18:50:32.353Z,37.80
2022-08-26T18:52:35.081Z,32.07
2022-08-26T18:54:38.072Z,35.20
2022-08-26T18:56:43.662Z,31.50
2022-08-26T18:58:46.297Z,30.57
2022-08-26T19:00:48.921Z,26.77
2022-08-26T19:02:55.716Z,28.77
2022-08-26T19:04:58.729Z,30.57
2022-08-26T19:07:01.390Z,31.40
2022-08-26T19:09:04.212Z,27.87
2022-08-26T19:11:07.387Z,28.17
2022-08-26T19:13:12.471Z,27.20
2022-08-26T19:15:15.336Z,33.10
2022-08-26T19:17:17.987Z,28.70
2022-08-26T19:19:25.783Z,30.37
2022-08-26T19:21:28.411Z,26.60
2022-08-26T19:23:32.312Z,25.93
2022-08-26T19:25:42.040Z,26.80
2022-08-26T19:27:44.634Z,30.77
2022-08-26T19:29:48.605Z,25.37
2022-08-26T19:31:51.361Z,25.53
2022-08-26T19:33:54.499Z,27.60
2022-08-26T19:35:57.450Z,27.00
2022-08-26T19:38:00.212Z,26.57
2022-08-26T19:40:04.002Z,24.63
2022-08-26T19:42:09.788Z,25.20
2022-08-26T19:44:34.329Z,25.33
2022-08-26T19:46:41.198Z,23.83
2022-08-26T19:48:44.371Z,21.70
2022-08-26T19:50:47.371Z,26.77
2022-08-26T19:52:50.102Z,27.07
2022-08-26T19:54:55.567Z,22.70
2022-08-26T19:56:58.860Z,23.03
2022-08-26T19:59:01.785Z,24.57
2022-08-26T20:01:04.689Z,21.67
2022-08-26T20:03:10.710Z,23.53
2022-08-26T20:05:20.916Z,23.20
2022-08-26T20:07:23.759Z,21.30
2022-08-26T20:09:26.548Z,20.53
2022-08-26T20:11:30.013Z,23.03
2022-08-26T20:13:32.739Z,20.60
2022-08-26T20:15:36.086Z,21.93
2022-08-26T20:17:39.546Z,22.63
2022-08-26T20:19:56.441Z,21.47
2022-08-26T20:22:01.879Z,20.93
2022-08-26T20:24:07.987Z,22.73
2022-08-26T20:26:13.611Z,20.03
2022-08-26T20:28:16.708Z,21.17
2022-08-26T20:30:22.421Z,20.13
2022-08-26T20:32:25.725Z,21.33
2022-08-26T20:34:28.854Z,20.90
2022-08-26T20:36:33.821Z,18.33
2022-08-26T20:38:36.962Z,20.07
2022-08-26T20:40:40.691Z,18.87
2022-08-26T20:42:43.733Z,20.93
2022-08-26T20:44:49.411Z,20.97
2022-08-26T20:46:59.294Z,19.77
2022-08-26T20:49:02.015Z,22.20
2022-08-26T20:51:05.007Z,19.97
2022-08-26T20:53:10.181Z,20.60
2022-08-26T20:55:13.318Z,19.63
2022-08-26T20:57:15.971Z,19.20
2022-08-26T20:59:19.443Z,20.30
2022-08-26T21:01:23.559Z,19.90
2022-08-26T21:03:27.734Z,17.03
2022-08-26T21:05:31.883Z,17.83
2022-08-26T21:07:36.115Z,18.30
2022-08-26T21:09:41.321Z,23.43
2022-08-26T21:11:45.061Z,19.83
2022-08-26T21:14:04.310Z,17.90
2022-08-26T21:16:26.279Z,17.03
2022-08-26T21:18:28.965Z,16.30
2022-08-26T21:20:32.437Z,17.57
2022-08-26T21:22:35.144Z,19.30
2022-08-26T21:24:39.776Z,17.80
2022-08-26T21:26:43.641Z,17.67
2022-08-26T21:28:46.564Z,15.77
2022-08-26T21:30:49.284Z,17.40
2022-08-26T21:32:52.018Z,16.33
2022-08-26T21:34:55.777Z,15.73
2022-08-26T21:36:58.847Z,15.80
2022-08-26T21:39:01.813Z,16.80
2022-08-26T21:41:08.231Z,15.60
2022-08-26T21:43:10.881Z,17.63
2022-08-26T21:45:23.833Z,15.73
2022-08-26T21:47:26.574Z,16.40
2022-08-26T21:49:29.443Z,15.60
2022-08-26T21:51:33.886Z,14.90
2022-08-26T21:53:36.991Z,15.27
2022-08-26T21:55:42.336Z,15.50
2022-08-26T21:57:46.288Z,16.33
2022-08-26T21:59:49.329Z,17.73
2022-08-26T22:01:52.088Z,14.40
2022-08-26T22:03:54.839Z,15.00
2022-08-26T22:05:57.826Z,14.60
2022-08-26T22:08:00.485Z,16.03
2022-08-26T22:10:04.455Z,15.30
2022-08-26T22:12:08.912Z,14.80
2022-08-26T22:14:13.266Z,14.63
2022-08-26T22:16:16.026Z,13.63
2022-08-26T22:18:20.011Z,14.73
2022-08-26T22:20:23.884Z,15.73
2022-08-26T22:22:26.662Z,13.20
2022-08-26T22:24:29.350Z,14.87
2022-08-26T22:26:33.363Z,14.83
2022-08-26T22:28:36.453Z,14.67
2022-08-26T22:30:42.109Z,13.80
2022-08-26T22:32:45.784Z,13.70
2022-08-26T22:34:48.869Z,14.00
2022-08-26T22:36:51.904Z,13.13
2022-08-26T22:38:54.689Z,13.73
2022-08-26T22:40:57.742Z,15.83
2022-08-26T22:43:00.575Z,12.97
2022-08-26T22:45:03.813Z,13.63
2022-08-26T22:47:09.766Z,13.73
2022-08-26T22:49:18.470Z,13.90
2022-08-26T22:51:22.141Z,13.53
2022-08-26T22:53:25.190Z,12.47
2022-08-26T22:55:27.941Z,12.90
2022-08-26T22:57:30.691Z,12.73
2022-08-26T22:59:33.689Z,14.00
2022-08-26T23:01:37.205Z,12.53
2022-08-26T23:03:41.773Z,13.90
2022-08-26T23:05:45.154Z,13.03
2022-08-26T23:07:48.598Z,12.40
2022-08-26T23:09:51.321Z,12.10
2022-08-26T23:11:55.899Z,13.97
2022-08-26T23:13:58.520Z,12.27
2022-08-26T23:16:05.938Z,12.23
2022-08-26T23:18:08.831Z,12.33
2022-08-26T23:20:13.960Z,10.63
2022-08-26T23:22:17.474Z,13.23
2022-08-26T23:24:22.896Z,11.97
2022-08-26T23:26:25.505Z,10.83
2022-08-26T23:28:28.164Z,11.63
2022-08-26T23:30:31.673Z,11.23
2022-08-26T23:32:34.326Z,12.00
2022-08-26T23:34:47.957Z,11.87
2022-08-26T23:36:53.844Z,11.23
2022-08-26T23:38:58.036Z,12.50
2022-08-26T23:41:00.707Z,11.60
2022-08-26T23:43:08.160Z,11.80
2022-08-26T23:45:12.038Z,11.80
2022-08-26T23:47:15.097Z,10.90
2022-08-26T23:49:17.765Z,12.40
2022-08-26T23:51:34.391Z,10.90
2022-08-26T23:53:38.950Z,12.10
2022-08-26T23:55:41.803Z,10.73
2022-08-26T23:57:44.525Z,11.60
2022-08-26T23:59:48.449Z,11.40
